sensor_id;sensor_type;location;lat;lon;timestamp;temperature;humidity
50690;DHT22;54375;48.298;11.238;2023-05-29T00:02:37;9.50;90.50
50690;DHT22;54375;48.298;11.238;2023-05-29T00:17:41;9.30;91.10
50690;DHT22;54375;48.298;11.238;2023-05-29T00:32:43;9.20;91.70
50690;DHT22;54375;48.298;11.238;2023-05-29T00:47:45;9.00;91.80
50690;DHT22;54375;48.298;11.238;2023-05-29T01:02:48;8.90;92.60
50690;DHT22;54375;48.298;11.238;2023-05-29T01:18:05;8.70;92.40
50690;DHT22;54375;48.298;11.238;2023-05-29T01:33:09;8.50;92.90
50690;DHT22;54375;48.298;11.238;2023-05-29T01:48:12;8.40;93.30
50690;DHT22;54375;48.298;11.238;2023-05-29T02:03:14;8.20;93.00
50690;DHT22;54375;48.298;11.238;2023-05-29T02:18:16;8.00;93.40
50690;DHT22;54375;48.298;11.238;2023-05-29T02:33:19;7.80;94.20
50690;DHT22;54375;48.298;11.238;2023-05-29T02:48:21;7.70;93.70
50690;DHT22;54375;48.298;11.238;2023-05-29T03:03:23;7.60;94.30
50690;DHT22;54375;48.298;11.238;2023-05-29T03:18:26;7.40;94.10
50690;DHT22;54375;48.298;11.238;2023-05-29T03:33:28;7.20;94.50
50690;DHT22;54375;48.298;11.238;2023-05-29T03:48:30;7.10;95.00
50690;DHT22;54375;48.298;11.238;2023-05-29T04:03:32;7.10;95.00
50690;DHT22;54375;48.298;11.238;2023-05-29T04:18:35;7.20;95.30
50690;DHT22;54375;48.298;11.238;2023-05-29T04:33:37;7.50;95.10
50690;DHT22;54375;48.298;11.238;2023-05-29T04:48:40;7.70;95.20
50690;DHT22;54375;48.298;11.238;2023-05-29T05:03:42;8.10;95.40
50690;DHT22;54375;48.298;11.238;2023-05-29T05:18:44;8.90;96.10
50690;DHT22;54375;48.298;11.238;2023-05-29T05:33:47;9.90;95.40
50690;DHT22;54375;48.298;11.238;2023-05-29T05:48:49;10.90;94.20
50690;DHT22;54375;48.298;11.238;2023-05-29T06:03:51;12.30;92.00
50690;DHT22;54375;48.298;11.238;2023-05-29T06:18:53;13.70;89.90
50690;DHT22;54375;48.298;11.238;2023-05-29T06:33:55;15.10;83.60
50690;DHT22;54375;48.298;11.238;2023-05-29T06:48:57;16.50;77.10
50690;DHT22;54375;48.298;11.238;2023-05-29T07:04:00;17.50;73.00
50690;DHT22;54375;48.298;11.238;2023-05-29T07:19:02;18.50;68.60
50690;DHT22;54375;48.298;11.238;2023-05-29T07:34:05;18.30;69.50
50690;DHT22;54375;48.298;11.238;2023-05-29T07:49:07;18.80;65.90
50690;DHT22;54375;48.298;11.238;2023-05-29T08:04:09;19.30;65.60
50690;DHT22;54375;48.298;11.238;2023-05-29T08:19:12;20.50;62.40
50690;DHT22;54375;48.298;11.238;2023-05-29T08:34:15;21.50;58.80
50690;DHT22;54375;48.298;11.238;2023-05-29T08:49:19;22.40;55.90
50690;DHT22;54375;48.298;11.238;2023-05-29T09:04:21;23.00;54.10
50690;DHT22;54375;48.298;11.238;2023-05-29T09:19:25;23.40;51.00
50690;DHT22;54375;48.298;11.238;2023-05-29T09:34:31;23.70;49.50
50690;DHT22;54375;48.298;11.238;2023-05-29T09:49:33;23.40;51.30
50690;DHT22;54375;48.298;11.238;2023-05-29T10:04:35;24.70;46.10
50690;DHT22;54375;48.298;11.238;2023-05-29T10:19:38;26.20;45.40
50690;DHT22;54375;48.298;11.238;2023-05-29T10:34:45;25.20;41.10
50690;DHT22;54375;48.298;11.238;2023-05-29T10:49:51;26.10;44.50
50690;DHT22;54375;48.298;11.238;2023-05-29T11:05:23;26.10;42.90
50690;DHT22;54375;48.298;11.238;2023-05-29T11:20:36;26.70;40.60
50690;DHT22;54375;48.298;11.238;2023-05-29T11:35:39;25.70;42.80
50690;DHT22;54375;48.298;11.238;2023-05-29T11:50:44;24.10;44.40
50690;DHT22;54375;48.298;11.238;2023-05-29T12:05:48;27.10;41.70
50690;DHT22;54375;48.298;11.238;2023-05-29T12:20:50;28.30;36.60
50690;DHT22;54375;48.298;11.238;2023-05-29T12:35:53;26.80;38.20
50690;DHT22;54375;48.298;11.238;2023-05-29T12:50:55;27.30;37.30
50690;DHT22;54375;48.298;11.238;2023-05-29T13:05:57;28.60;37.20
50690;DHT22;54375;48.298;11.238;2023-05-29T13:21:01;27.90;37.20
50690;DHT22;54375;48.298;11.238;2023-05-29T13:36:04;29.20;36.90
50690;DHT22;54375;48.298;11.238;2023-05-29T13:51:06;28.70;35.20
50690;DHT22;54375;48.298;11.238;2023-05-29T14:06:09;29.60;35.20
50690;DHT22;54375;48.298;11.238;2023-05-29T14:21:12;29.60;35.60
50690;DHT22;54375;48.298;11.238;2023-05-29T14:36:14;29.80;34.00
50690;DHT22;54375;48.298;11.238;2023-05-29T14:51:16;29.00;35.40
50690;DHT22;54375;48.298;11.238;2023-05-29T15:06:19;29.20;35.50
50690;DHT22;54375;48.298;11.238;2023-05-29T15:21:21;29.20;35.30
50690;DHT22;54375;48.298;11.238;2023-05-29T15:36:23;27.90;36.20
50690;DHT22;54375;48.298;11.238;2023-05-29T15:51:25;27.80;35.40
50690;DHT22;54375;48.298;11.238;2023-05-29T16:06:28;28.50;36.10
50690;DHT22;54375;48.298;11.238;2023-05-29T16:21:30;28.40;35.70
50690;DHT22;54375;48.298;11.238;2023-05-29T16:36:32;28.60;34.40
50690;DHT22;54375;48.298;11.238;2023-05-29T16:51:35;28.80;35.20
50690;DHT22;54375;48.298;11.238;2023-05-29T17:06:37;27.90;35.40
50690;DHT22;54375;48.298;11.238;2023-05-29T17:21:39;27.90;34.80
50690;DHT22;54375;48.298;11.238;2023-05-29T17:36:41;28.10;34.90
50690;DHT22;54375;48.298;11.238;2023-05-29T17:51:44;28.00;35.80
50690;DHT22;54375;48.298;11.238;2023-05-29T18:06:46;27.20;35.40
50690;DHT22;54375;48.298;11.238;2023-05-29T18:21:49;26.60;36.10
50690;DHT22;54375;48.298;11.238;2023-05-29T18:36:52;25.30;38.40
50690;DHT22;54375;48.298;11.238;2023-05-29T18:51:54;24.10;41.20
50690;DHT22;54375;48.298;11.238;2023-05-29T19:06:56;22.80;44.20
50690;DHT22;54375;48.298;11.238;2023-05-29T19:21:59;21.50;47.50
50690;DHT22;54375;48.298;11.238;2023-05-29T19:37:01;20.20;51.90
50690;DHT22;54375;48.298;11.238;2023-05-29T20:07:14;18.20;59.60
50690;DHT22;54375;48.298;11.238;2023-05-29T20:22:16;17.30;61.50
50690;DHT22;54375;48.298;11.238;2023-05-29T20:37:18;16.50;65.10
50690;DHT22;54375;48.298;11.238;2023-05-29T20:52:21;15.80;67.20
50690;DHT22;54375;48.298;11.238;2023-05-29T21:07:23;15.10;70.50
50690;DHT22;54375;48.298;11.238;2023-05-29T21:22:25;14.60;71.50
50690;DHT22;54375;48.298;11.238;2023-05-29T21:37:29;14.10;74.80
50690;DHT22;54375;48.298;11.238;2023-05-29T21:52:31;13.60;77.30
50690;DHT22;54375;48.298;11.238;2023-05-29T22:07:34;13.20;79.10
50690;DHT22;54375;48.298;11.238;2023-05-29T22:22:36;12.90;81.30
50690;DHT22;54375;48.298;11.238;2023-05-29T22:37:38;12.60;83.20
50690;DHT22;54375;48.298;11.238;2023-05-29T22:52:41;12.20;87.40
50690;DHT22;54375;48.298;11.238;2023-05-29T23:07:43;12.10;89.30
50690;DHT22;54375;48.298;11.238;2023-05-29T23:22:45;12.00;88.30
50690;DHT22;54375;48.298;11.238;2023-05-29T23:37:48;11.80;90.70
50690;DHT22;54375;48.298;11.238;2023-05-29T23:52:50;11.80;88.20
